createdAt,value
2023-02-11T00:02:23.514Z,23.90
2023-02-11T00:04:51.577Z,25.55
2023-02-11T00:07:19.650Z,29.52
2023-02-11T00:09:47.671Z,30.27
2023-02-11T00:12:19.549Z,33.25
2023-02-11T00:14:47.600Z,28.77
2023-02-11T00:17:15.584Z,35.10
2023-02-11T00:19:43.686Z,34.20
2023-02-11T00:22:11.686Z,31.08
2023-02-11T00:24:39.661Z,35.05
2023-02-11T00:27:07.651Z,26.17
2023-02-11T00:29:38.247Z,24.77
2023-02-11T00:32:06.955Z,24.17
2023-02-11T00:34:35.599Z,30.50
2023-02-11T00:37:04.262Z,27.92
2023-02-11T00:39:33.129Z,28.90
2023-02-11T00:42:01.305Z,29.90
2023-02-11T00:44:29.310Z,25.13
2023-02-11T00:46:58.684Z,25.70
2023-02-11T00:49:26.653Z,30.88
2023-02-11T00:51:54.647Z,30.58
2023-02-11T00:54:22.596Z,28.50
2023-02-11T00:56:50.611Z,28.52
2023-02-11T00:59:18.618Z,28.90
2023-02-11T01:01:46.729Z,25.90
2023-02-11T01:04:16.183Z,27.88
2023-02-11T01:06:44.237Z,29.35
2023-02-11T01:09:12.247Z,32.30
2023-02-11T01:11:40.229Z,33.40
2023-02-11T01:14:08.212Z,26.08
2023-02-11T01:16:36.197Z,22.55
2023-02-11T01:19:04.393Z,27.10
2023-02-11T01:21:33.748Z,23.65
2023-02-11T01:24:01.777Z,23.42
2023-02-11T01:26:29.798Z,27.30
2023-02-11T01:29:00.070Z,28.58
2023-02-11T01:31:28.503Z,26.95
2023-02-11T01:33:56.558Z,24.15
2023-02-11T01:36:24.602Z,27.25
2023-02-11T01:38:54.060Z,23.60
2023-02-11T01:41:22.590Z,20.73
2023-02-11T01:43:51.878Z,24.35
2023-02-11T01:46:32.055Z,32.20
2023-02-11T01:49:05.506Z,29.58
2023-02-11T01:51:38.030Z,26.90
2023-02-11T01:54:29.998Z,24.70
2023-02-11T01:57:18.012Z,21.13
2023-02-11T01:59:51.766Z,27.67
2023-02-11T02:02:24.542Z,30.73
2023-02-11T02:04:58.567Z,30.52
2023-02-11T02:07:33.694Z,27.38
2023-02-11T02:10:07.581Z,29.75
2023-02-11T02:12:35.607Z,25.60
2023-02-11T02:15:25.214Z,33.47
2023-02-11T02:18:04.411Z,30.35
2023-02-11T02:21:20.992Z,34.25
2023-02-11T02:24:32.877Z,27.75
2023-02-11T02:27:30.731Z,36.50
2023-02-11T02:30:36.049Z,29.40
2023-02-11T02:33:23.431Z,28.92
2023-02-11T02:35:59.276Z,32.15
2023-02-11T02:38:35.078Z,35.20
2023-02-11T02:41:07.364Z,37.30
2023-02-11T02:43:36.845Z,35.20
2023-02-11T02:46:16.868Z,36.90
2023-02-11T02:48:49.465Z,33.95
2023-02-11T02:51:37.259Z,42.05
2023-02-11T02:54:30.587Z,39.92
2023-02-11T02:57:08.713Z,40.35
2023-02-11T02:59:51.595Z,42.88
2023-02-11T03:02:26.030Z,42.42
2023-02-11T03:05:03.561Z,42.30
2023-02-11T03:07:41.213Z,48.25
2023-02-11T03:10:14.981Z,41.63
2023-02-11T03:12:45.339Z,48.80
2023-02-11T03:15:14.884Z,45.40
2023-02-11T03:17:46.955Z,48.00
2023-02-11T03:20:19.333Z,47.47
2023-02-11T03:25:17.854Z,48.45
2023-02-11T03:27:52.540Z,54.92
2023-02-11T03:30:26.458Z,62.58
2023-02-11T03:33:01.089Z,63.92
2023-02-11T03:35:38.833Z,61.38
2023-02-11T03:38:11.781Z,67.63
2023-02-11T03:40:42.231Z,67.75
2023-02-11T03:43:13.428Z,71.97
2023-02-11T03:45:42.143Z,73.88
2023-02-11T03:48:15.629Z,76.07
2023-02-11T03:50:47.432Z,71.43
2023-02-11T03:53:16.869Z,81.57
2023-02-11T03:55:46.625Z,71.97
2023-02-11T03:58:14.720Z,75.22
2023-02-11T04:00:44.085Z,69.80
2023-02-11T04:03:13.243Z,70.13
2023-02-11T04:05:41.710Z,68.38
2023-02-11T04:08:11.130Z,68.22
2023-02-11T04:10:39.160Z,72.60
2023-02-11T04:13:07.167Z,71.72
2023-02-11T04:15:35.225Z,74.57
2023-02-11T04:18:03.682Z,73.28
2023-02-11T04:20:31.725Z,75.65
2023-02-11T04:22:59.738Z,78.50
2023-02-11T04:25:29.260Z,68.72
2023-02-11T04:27:57.374Z,76.10
2023-02-11T04:30:25.483Z,78.63
2023-02-11T04:32:54.334Z,79.20
2023-02-11T04:35:22.468Z,83.25
2023-02-11T04:37:50.471Z,79.82
2023-02-11T04:40:18.776Z,80.25
2023-02-11T04:42:48.092Z,86.18
2023-02-11T04:45:16.197Z,78.85
2023-02-11T04:47:44.182Z,75.35
2023-02-11T04:50:12.152Z,75.70
2023-02-11T04:52:40.116Z,82.78
2023-02-11T04:55:08.521Z,79.72
2023-02-11T04:57:36.548Z,82.45
2023-02-11T05:00:07.433Z,82.05
2023-02-11T05:02:35.457Z,85.45
2023-02-11T05:05:03.522Z,91.82
2023-02-11T05:07:31.588Z,95.32
2023-02-11T05:09:59.581Z,95.40
2023-02-11T05:12:27.616Z,104.95
2023-02-11T05:14:55.701Z,102.32
2023-02-11T05:17:25.061Z,107.40
2023-02-11T05:19:53.053Z,104.63
2023-02-11T05:22:21.919Z,100.75
2023-02-11T05:24:50.164Z,103.40
2023-02-11T05:27:18.165Z,112.72
2023-02-11T05:29:46.123Z,105.10
2023-02-11T05:32:14.081Z,116.28
2023-02-11T05:34:43.550Z,113.75
2023-02-11T05:37:11.647Z,109.55
2023-02-11T05:39:39.650Z,112.05
2023-02-11T05:42:08.097Z,111.80
2023-02-11T05:44:36.107Z,109.47
2023-02-11T05:47:04.576Z,108.57
2023-02-11T05:49:32.713Z,113.78
2023-02-11T05:52:02.053Z,104.35
2023-02-11T05:54:30.118Z,103.70
2023-02-11T05:56:58.102Z,101.43
2023-02-11T05:59:26.348Z,103.82
2023-02-11T06:01:54.384Z,110.07
2023-02-11T06:04:22.859Z,112.07
2023-02-11T06:06:50.824Z,118.22
2023-02-11T06:09:20.200Z,115.32
2023-02-11T06:11:48.146Z,120.07
2023-02-11T06:14:16.189Z,128.45
2023-02-11T06:16:44.312Z,133.32
2023-02-11T06:19:12.631Z,138.00
2023-02-11T06:21:44.171Z,152.27
2023-02-11T06:24:24.687Z,157.93
2023-02-11T06:27:06.548Z,172.10
2023-02-11T06:29:34.553Z,162.88
2023-02-11T06:32:02.785Z,180.20
2023-02-11T06:34:30.856Z,175.05
2023-02-11T06:36:58.865Z,194.35
2023-02-11T06:39:26.858Z,187.23
2023-02-11T06:41:54.891Z,185.10
2023-02-11T06:44:24.348Z,208.13
2023-02-11T06:46:52.400Z,221.68
2023-02-11T06:49:20.371Z,218.88
2023-02-11T06:51:48.392Z,220.63
2023-02-11T06:54:16.410Z,218.57
2023-02-11T06:56:44.426Z,214.88
2023-02-11T06:59:16.658Z,225.40
2023-02-11T07:01:46.111Z,219.15
2023-02-11T07:04:14.764Z,217.25
2023-02-11T07:06:43.078Z,215.18
2023-02-11T07:09:11.127Z,216.98
2023-02-11T07:11:39.133Z,208.85
2023-02-11T07:14:09.305Z,206.10
2023-02-11T07:16:37.807Z,218.20
2023-02-11T07:19:07.260Z,203.52
2023-02-11T07:21:35.566Z,214.93
2023-02-11T07:24:08.885Z,231.48
2023-02-11T07:26:41.264Z,220.30
2023-02-11T07:29:09.310Z,221.32
2023-02-11T07:31:37.538Z,234.80
2023-02-11T07:34:06.954Z,245.15
2023-02-11T07:36:35.039Z,251.52
2023-02-11T07:39:03.056Z,257.73
2023-02-11T07:41:31.164Z,262.10
2023-02-11T07:43:59.193Z,267.63
2023-02-11T07:46:28.837Z,269.27
2023-02-11T07:48:57.432Z,278.20
2023-02-11T07:51:29.733Z,285.77
2023-02-11T07:54:00.390Z,295.80
2023-02-11T07:56:29.620Z,289.02
2023-02-11T07:59:00.977Z,295.50
2023-02-11T08:01:29.235Z,299.25
2023-02-11T08:03:58.057Z,293.33
2023-02-11T08:06:29.024Z,295.38
2023-02-11T08:08:57.248Z,293.27
2023-02-11T08:11:26.725Z,291.25
2023-02-11T08:13:55.514Z,303.80
2023-02-11T08:16:26.546Z,290.40
2023-02-11T08:18:55.214Z,286.75
2023-02-11T08:21:23.288Z,299.95
2023-02-11T08:23:53.325Z,308.20
2023-02-11T08:26:24.430Z,297.17
2023-02-11T08:28:54.468Z,295.02
2023-02-11T08:31:24.750Z,298.27
2023-02-11T08:33:54.658Z,286.52
2023-02-11T08:36:29.095Z,285.52
2023-02-11T08:39:17.418Z,290.33
2023-02-11T08:41:48.468Z,288.73
2023-02-11T08:44:16.822Z,287.65
2023-02-11T08:46:44.870Z,274.33
2023-02-11T08:49:12.954Z,276.42
2023-02-11T08:51:41.364Z,266.35
2023-02-11T08:54:10.775Z,242.38
2023-02-11T08:56:39.381Z,236.98
2023-02-11T08:59:09.158Z,213.55
2023-02-11T09:01:37.422Z,185.88
2023-02-11T09:04:05.900Z,173.40
2023-02-11T09:06:34.152Z,149.90
2023-02-11T09:09:02.491Z,120.45
2023-02-11T09:11:34.507Z,96.25
2023-02-11T09:14:03.960Z,78.78
2023-02-11T09:31:52.373Z,51.95
2023-02-11T09:34:20.450Z,41.40
2023-02-11T09:36:48.595Z,39.42
2023-02-11T09:39:18.933Z,36.33
2023-02-11T09:42:31.433Z,34.47
2023-02-11T09:45:01.325Z,36.60
2023-02-11T09:47:34.067Z,34.58
2023-02-11T09:50:06.045Z,32.53
2023-02-11T09:52:40.144Z,32.13
2023-02-11T09:55:18.545Z,32.20
2023-02-11T09:57:46.754Z,31.42
2023-02-11T10:00:22.822Z,29.35
2023-02-11T10:03:18.721Z,33.33
2023-02-11T10:06:11.384Z,30.13
2023-02-11T10:08:50.905Z,29.33
2023-02-11T10:11:31.977Z,32.08
2023-02-11T10:14:17.810Z,29.40
2023-02-11T10:17:00.024Z,29.00
2023-02-11T10:19:44.249Z,28.42
2023-02-11T10:22:19.456Z,26.67
2023-02-11T10:24:53.118Z,25.40
2023-02-11T10:27:23.022Z,25.67
2023-02-11T10:29:54.710Z,26.73
2023-02-11T10:32:33.839Z,27.05
2023-02-11T10:35:11.307Z,27.15
2023-02-11T10:37:39.358Z,24.30
2023-02-11T10:40:13.732Z,22.65
2023-02-11T10:42:45.425Z,25.88
2023-02-11T11:21:19.535Z,24.85
2023-02-11T11:23:56.926Z,24.20
2023-02-11T11:56:31.343Z,27.73
2023-02-11T11:59:03.617Z,23.63
2023-02-11T12:04:26.292Z,25.92
2023-02-11T12:07:18.017Z,25.98
2023-02-11T12:09:56.865Z,23.75
2023-02-11T12:12:36.098Z,28.63
2023-02-11T12:15:15.607Z,26.77
2023-02-11T12:18:00.717Z,24.90
2023-02-11T12:20:38.816Z,24.35
2023-02-11T12:23:22.733Z,38.13
2023-02-11T12:25:58.800Z,28.98
2023-02-11T12:28:39.548Z,37.20
2023-02-11T12:31:23.125Z,39.42
2023-02-11T12:34:15.896Z,41.30
2023-02-11T12:39:33.879Z,21.63
2023-02-11T12:42:36.457Z,22.92
2023-02-11T12:45:17.919Z,22.27
2023-02-11T12:47:57.657Z,28.15
2023-02-11T12:50:35.986Z,19.90
2023-02-11T12:53:16.261Z,21.65
2023-02-11T12:55:47.983Z,21.85
2023-02-11T12:58:21.765Z,20.52
2023-02-11T13:00:57.086Z,21.38
2023-02-11T13:03:28.648Z,28.95
2023-02-11T13:06:01.037Z,17.07
2023-02-11T13:11:02.390Z,19.33
2023-02-11T13:16:07.368Z,18.10
2023-02-11T13:18:49.336Z,22.00
2023-02-11T13:21:29.319Z,17.88
2023-02-11T13:24:02.867Z,15.63
2023-02-11T13:26:37.459Z,14.88
2023-02-11T13:29:21.984Z,13.18
2023-02-11T13:32:09.627Z,15.18
2023-02-11T13:34:58.551Z,15.35
2023-02-11T13:37:28.579Z,14.38
2023-02-11T13:40:02.120Z,21.55
2023-02-11T13:42:31.705Z,38.55
2023-02-11T13:45:00.105Z,19.20
2023-02-11T13:47:33.606Z,14.38
2023-02-11T13:50:07.273Z,12.23
2023-02-11T13:52:38.322Z,12.73
2023-02-11T13:55:16.053Z,15.55
2023-02-11T13:57:44.448Z,14.70
2023-02-11T14:00:49.410Z,11.75
2023-02-11T14:03:48.918Z,15.63
2023-02-11T14:06:37.981Z,15.60
2023-02-11T14:09:26.497Z,23.65
2023-02-11T14:11:57.181Z,13.80
2023-02-11T14:14:27.568Z,10.20
2023-02-11T14:17:30.936Z,13.57
2023-02-11T14:20:02.089Z,13.85
2023-02-11T14:22:32.919Z,13.93
2023-02-11T14:25:03.187Z,10.48
2023-02-11T14:27:37.582Z,19.95
2023-02-11T14:30:32.400Z,9.63
2023-02-11T14:33:27.740Z,14.27
2023-02-11T14:36:06.683Z,11.32
2023-02-11T14:38:50.521Z,9.40
2023-02-11T14:41:22.922Z,13.45
2023-02-11T14:43:55.027Z,19.02
2023-02-11T14:46:27.725Z,11.65
2023-02-11T14:48:59.739Z,10.20
2023-02-11T14:51:31.550Z,21.17
2023-02-11T14:54:03.825Z,13.82
2023-02-11T14:59:03.646Z,18.20
2023-02-11T15:01:35.131Z,14.48
2023-02-11T15:04:04.655Z,19.97
2023-02-11T15:06:37.581Z,10.30
2023-02-11T15:09:17.811Z,11.73
2023-02-11T15:11:49.640Z,23.83
2023-02-11T15:14:24.010Z,11.90
2023-02-11T15:16:54.715Z,10.88
2023-02-11T15:19:26.777Z,13.27
2023-02-11T15:21:59.160Z,11.18
2023-02-11T15:27:01.173Z,11.63
2023-02-11T15:29:30.690Z,19.17
2023-02-11T15:32:07.308Z,14.60
2023-02-11T15:34:35.890Z,15.25
2023-02-11T15:37:05.719Z,25.13
2023-02-11T15:39:37.491Z,18.95
2023-02-11T15:42:23.487Z,14.90
2023-02-11T15:45:08.725Z,16.67
2023-02-11T15:47:37.223Z,16.77
2023-02-11T15:50:06.621Z,33.90
2023-02-11T15:52:36.452Z,19.35
2023-02-11T15:55:05.154Z,15.50
2023-02-11T15:57:35.531Z,11.38
2023-02-11T16:00:07.249Z,17.58
2023-02-11T16:02:44.863Z,14.98
2023-02-11T16:05:28.611Z,17.73
2023-02-11T16:07:59.374Z,24.00
2023-02-11T16:10:30.709Z,17.17
2023-02-11T16:13:19.906Z,14.75
2023-02-11T16:15:54.914Z,16.40
2023-02-11T16:18:37.921Z,14.50
2023-02-11T16:21:12.858Z,19.52
2023-02-11T16:23:43.218Z,13.45
2023-02-11T16:26:22.064Z,15.85
2023-02-11T16:28:50.267Z,15.95
2023-02-11T16:31:18.797Z,15.25
2023-02-11T16:33:47.029Z,18.27
2023-02-11T16:36:18.144Z,17.13
2023-02-11T16:38:47.846Z,117.70
2023-02-11T16:41:15.887Z,29.45
2023-02-11T16:43:43.911Z,252.95
2023-02-11T16:46:15.411Z,44.08
2023-02-11T16:48:43.598Z,169.33
2023-02-11T16:51:14.245Z,20.88
2023-02-11T16:53:42.251Z,27.77
2023-02-11T16:56:17.207Z,17.10
2023-02-11T16:58:45.558Z,18.60
2023-02-11T17:01:14.446Z,17.65
2023-02-11T17:03:43.755Z,13.20
2023-02-11T17:06:13.506Z,48.95
2023-02-11T17:08:42.048Z,66.97
2023-02-11T17:11:10.083Z,19.23
2023-02-11T17:13:41.623Z,34.25
2023-02-11T17:16:18.326Z,44.80
2023-02-11T17:18:46.569Z,19.05
2023-02-11T17:21:14.942Z,19.73
2023-02-11T17:23:43.208Z,16.35
2023-02-11T17:26:11.285Z,54.35
2023-02-11T17:28:40.689Z,71.15
2023-02-11T17:31:10.281Z,20.60
2023-02-11T17:33:39.500Z,17.67
2023-02-11T17:36:09.058Z,20.65
2023-02-11T17:38:38.573Z,14.48
2023-02-11T17:41:07.466Z,16.90
2023-02-11T17:43:35.803Z,14.05
2023-02-11T17:46:10.154Z,13.93
2023-02-11T17:48:39.711Z,14.43
2023-02-11T17:51:22.366Z,31.25
2023-02-11T17:56:19.107Z,15.40
2023-02-11T17:58:47.459Z,17.27
2023-02-11T18:01:17.376Z,17.15
2023-02-11T18:03:45.728Z,15.85
2023-02-11T18:06:14.108Z,17.58
2023-02-11T18:08:43.254Z,14.85
2023-02-11T18:11:12.636Z,15.25
2023-02-11T18:13:40.840Z,15.20
2023-02-11T18:16:09.569Z,18.75
2023-02-11T18:18:39.663Z,29.30
2023-02-11T18:21:08.952Z,19.48
2023-02-11T18:23:37.205Z,18.45
2023-02-11T18:26:08.657Z,18.83
2023-02-11T18:28:36.892Z,15.63
2023-02-11T18:31:05.978Z,16.65
2023-02-11T18:33:34.797Z,18.17
2023-02-11T18:36:08.425Z,16.73
2023-02-11T18:38:37.167Z,14.57
2023-02-11T18:41:07.316Z,18.38
2023-02-11T18:43:36.410Z,18.00
2023-02-11T18:46:08.788Z,13.20
2023-02-11T18:51:09.756Z,17.70
2023-02-11T18:53:38.316Z,21.38
2023-02-11T18:56:11.195Z,19.17
2023-02-11T18:58:40.000Z,16.77
2023-02-11T19:01:13.538Z,18.50
2023-02-11T19:03:41.976Z,242.45
2023-02-11T19:06:15.619Z,32.08
2023-02-11T19:08:44.155Z,22.83
2023-02-11T19:11:12.739Z,20.33
2023-02-11T19:13:40.850Z,21.35
2023-02-11T19:16:11.473Z,19.63
2023-02-11T19:18:39.808Z,17.30
2023-02-11T19:21:09.893Z,17.30
2023-02-11T19:23:40.050Z,17.13
2023-02-11T19:26:08.598Z,29.00
2023-02-11T19:28:39.494Z,18.15
2023-02-11T19:31:09.283Z,20.75
2023-02-11T19:33:38.078Z,16.05
2023-02-11T19:36:07.838Z,17.98
2023-02-11T19:38:37.588Z,21.02
2023-02-11T19:41:07.414Z,15.40
2023-02-11T19:43:36.182Z,18.05
2023-02-11T19:46:05.553Z,18.05
2023-02-11T19:48:34.017Z,15.43
2023-02-11T19:51:11.450Z,20.73
2023-02-11T19:53:41.206Z,15.88
2023-02-11T19:56:10.993Z,15.63
2023-02-11T19:58:40.793Z,15.63
2023-02-11T20:01:10.633Z,17.58
2023-02-11T20:03:42.152Z,17.20
2023-02-11T20:06:14.663Z,16.08
2023-02-11T20:08:43.166Z,17.88
2023-02-11T20:11:15.140Z,16.95
2023-02-11T20:13:44.043Z,16.85
2023-02-11T20:16:14.171Z,17.65
2023-02-11T20:18:42.821Z,16.67
2023-02-11T20:21:11.886Z,17.60
2023-02-11T20:23:41.701Z,16.27
2023-02-11T20:26:14.735Z,17.33
2023-02-11T20:28:43.708Z,17.92
2023-02-11T20:31:12.714Z,15.70
2023-02-11T20:33:44.771Z,17.45
2023-02-11T20:36:16.686Z,17.83
2023-02-11T20:38:45.681Z,18.52
2023-02-11T20:41:16.958Z,20.42
2023-02-11T20:43:47.327Z,17.13
2023-02-11T20:46:18.630Z,17.92
2023-02-11T20:48:46.820Z,18.15
2023-02-11T20:51:16.884Z,21.83
2023-02-11T20:53:49.227Z,19.75
2023-02-11T20:58:48.006Z,21.05
2023-02-11T21:01:19.050Z,19.35
2023-02-11T21:03:50.880Z,19.02
2023-02-11T21:06:19.399Z,18.38
2023-02-11T21:08:47.660Z,18.10
2023-02-11T21:11:16.477Z,18.48
2023-02-11T21:13:45.901Z,16.88
2023-02-11T21:16:17.008Z,18.00
2023-02-11T21:18:45.224Z,19.27
2023-02-11T21:21:13.252Z,20.80
2023-02-11T21:23:41.280Z,19.08
2023-02-11T21:26:09.980Z,19.55
2023-02-11T21:28:40.897Z,19.40
2023-02-11T21:31:11.064Z,20.17
2023-02-11T21:33:39.222Z,22.00
2023-02-11T21:36:08.059Z,20.38
2023-02-11T21:38:36.905Z,20.15
2023-02-11T21:41:05.543Z,22.10
2023-02-11T21:43:34.603Z,22.48
2023-02-11T21:46:07.241Z,21.92
2023-02-11T21:48:36.748Z,20.77
2023-02-11T21:51:06.386Z,22.25
2023-02-11T21:53:35.069Z,22.05
2023-02-11T21:56:05.105Z,23.92
2023-02-11T21:58:33.165Z,20.55
2023-02-11T22:01:01.244Z,20.25
2023-02-11T22:03:29.338Z,21.90
2023-02-11T22:05:58.734Z,21.52
2023-02-11T22:08:26.840Z,19.67
2023-02-11T22:10:54.865Z,21.20
2023-02-11T22:13:22.864Z,20.08
2023-02-11T22:15:59.270Z,21.15
2023-02-11T22:18:27.495Z,23.80
2023-02-11T22:21:01.178Z,21.95
2023-02-11T22:23:29.570Z,22.70
2023-02-11T22:25:58.102Z,21.83
2023-02-11T22:28:27.055Z,23.00
2023-02-11T22:30:56.161Z,23.17
2023-02-11T22:33:24.675Z,22.98
2023-02-11T22:36:00.458Z,23.40
2023-02-11T22:38:31.090Z,24.17
2023-02-11T22:40:59.247Z,24.40
2023-02-11T22:43:28.385Z,22.52
2023-02-11T22:45:57.083Z,22.88
2023-02-11T22:48:25.233Z,23.02
2023-02-11T22:50:53.244Z,23.83
2023-02-11T22:53:25.463Z,24.52
2023-02-11T22:55:53.831Z,23.17
2023-02-11T22:58:22.143Z,23.85
2023-02-11T23:00:50.202Z,25.85
2023-02-11T23:03:18.254Z,24.85
2023-02-11T23:05:46.262Z,25.67
2023-02-11T23:08:14.343Z,21.95
2023-02-11T23:10:43.782Z,22.98
2023-02-11T23:13:11.756Z,21.45
2023-02-11T23:15:41.745Z,20.48
2023-02-11T23:18:10.822Z,23.23
2023-02-11T23:20:40.989Z,20.15
2023-02-11T23:23:09.145Z,20.80
2023-02-11T23:25:44.335Z,21.98
2023-02-11T23:28:13.313Z,20.65
2023-02-11T23:30:42.390Z,22.00
2023-02-11T23:33:10.380Z,21.80
2023-02-11T23:35:38.486Z,20.80
2023-02-11T23:38:06.577Z,21.80
2023-02-11T23:40:34.611Z,21.98
2023-02-11T23:43:04.041Z,19.85
2023-02-11T23:45:32.252Z,20.88
2023-02-11T23:48:00.237Z,20.90
2023-02-11T23:50:28.301Z,21.23
2023-02-11T23:52:56.381Z,21.30
2023-02-11T23:55:24.382Z,22.67
2023-02-11T23:57:52.369Z,21.10
